ADDS METAR Data INFO
IDs: Format: Raw Decoded Include TAF

Data at: 0545 UTC 22 Nov 2017

KSGR 220453Z AUTO 04012KT 10SM OVC012 19/16 A3004 RMK AO2 LTG DSNT SW SLP175 T01890161
KSGR 220353Z AUTO 05013KT 10SM OVC011 19/16 A3001 RMK AO2 SLP164 T01890161
KSGR 220253Z 04014KT 10SM OVC014 21/17 A2998 RMK AO2 SLP153 T02060172 51035
KSGR 220242Z 05012KT 10SM OVC014 21/17 A2997 RMK AO2 T02060172
KSGR 220153Z 07013KT 10SM BKN018 OVC022 22/17 A2995 RMK AO2 SLP143 T02170172
KSGR 220126Z 08008KT 10SM BKN026 BKN035 OVC045 22/17 A2993 RMK AO2 T02220167
KSGR 220053Z 09007KT 10SM FEW030 SCT038 22/17 A2991 RMK AO2 SLP129 T02220172
KSGR 212353Z 06003KT 10SM OVC044 23/16 A2987 RMK AO2 SLP117 T02280156 10261 20222 53008
KSGR 212253Z 05003KT 10SM CLR 25/15 A2986 RMK AO2 SLP113 T02500150
KSGR 212153Z 00000KT 10SM FEW041 26/16 A2985 RMK AO2 SLP109 T02560156
KSGR 212053Z AUTO 22006KT 10SM FEW036 SCT047 26/16 A2985 RMK AO2 SLP109 T02560156 56010
KSGR 211953Z 10SM SCT036 SCT045 24/16 A2985 RMK AO2 SLP110 T02440161
KSGR 211853Z 19007KT 10SM SCT030 BKN042 25/17 A2985 RMK AO2 SLP110 T02500167
KSGR 211753Z 23007KT 10SM BKN033 BKN040 23/16 A2988 RMK AO2 SLP120 T02330161 10239 20156 58016
KSGR 211653Z 23007KT 10SM FEW020 SCT025 BKN035 23/17 A2991 RMK AO2 SLP131 T02330167
KSGR 211636Z VRB03KT 10SM SCT020 SCT029 BKN035 23/17 A2992 RMK AO2 T02280172
KSGR 211628Z 15003KT 10SM FEW020 BKN027 OVC035 22/17 A2992 RMK AO2 T02220172
KSGR 211553Z 22003KT 10SM SCT030 BKN039 22/17 A2994 RMK AO2 SLP139 T02170172
KSGR 211453Z 15004KT 10SM CLR 20/17 A2993 RMK AO2 SLP136 T02000167 53004
KSGR 211353Z 00000KT 10SM CLR 17/16 A2992 RMK AO2 SLP132 T01720156
KSGR 211253Z 12003KT 10SM FEW060 16/14 A2991 RMK AO2 SLP130 T01610139
KSGR 211153Z 09003KT 10SM OVC070 17/14 A2992 RMK AO2 SLP132 60000 T01670144 10172 20150 56006
KSGR 211053Z AUTO 00000KT 10SM SCT041 OVC065 17/14 A2992 RMK AO2 RAB18E27 SLP131 P0000 T01670144
KSGR 210953Z AUTO 00000KT 10SM FEW026 SCT043 OVC065 17/14 A2992 RMK AO2 SLP134 T01670139
KSGR 210853Z AUTO 09003KT 10SM FEW041 BKN049 OVC060 16/13 A2993 RMK AO2 SLP138 T01610133 58023
KSGR 210753Z AUTO 00000KT 10SM OVC060 16/13 A2996 RMK AO2 SLP147 T01610128
KSGR 210653Z AUTO 00000KT 10SM OVC060 16/12 A2998 RMK AO2 SLP153 T01560122
KSGR 210553Z AUTO 10004KT 10SM OVC060 15/11 A3000 RMK AO2 SLP161 T01500111 10178 20144 402110061 58012
KSGR 210453Z AUTO 10003KT 10SM SCT060 14/11 A3002 RMK AO2 SLP166 T01440106
KSGR 210353Z AUTO 11004KT 10SM CLR 14/11 A3003 RMK AO2 SLP170 T01440106
KSGR 210253Z 10004KT 10SM CLR 15/10 A3004 RMK AO2 SLP173 T01500100 58004
KSGR 210153Z 13005KT 10SM CLR 16/10 A3005 RMK AO2 SLP179 T01560100
KSGR 210053Z 13007KT 10SM CLR 17/10 A3006 RMK AO2 SLP180 T01670100
KSGR 202353Z 14009KT 10SM CLR 17/09 A3005 RMK AO2 SLP178 T01720094 10211 20172 56008
KSGR 202253Z 16008KT 10SM FEW120 18/09 A3006 RMK AO2 SLP180 T01830089
KSGR 202153Z 16012KT 10SM CLR 20/08 A3006 RMK AO2 SLP180 T02000083
KSGR 202053Z 18005KT 10SM CLR 21/08 A3007 RMK AO2 SLP186 T02060083 56040
KSGR 201953Z 11006KT 10SM FEW049 21/07 A3011 RMK AO2 SLP196 T02060072
KSGR 201853Z 15006KT 10SM CLR 20/07 A3015 RMK AO2 SLP211 T02000072
KSGR 201753Z 17011KT 10SM SCT046 20/07 A3019 RMK AO2 SLP225 T02000072 10200 20072 58012